Time;durP1;ratioP1;P1;durP2;ratioP2;P2;SDS_P1;SDS_P2;PMS_P1;PMS_P2;Temp;Humidity;BMP_temperature;BMP_pressure;BME280_temperature;BME280_humidity;BME280_pressure;Samples;Min_cycle;Max_cycle;Signal;HPM_P1;HPM_P2
2023/04/13 00:01:35;;;;;;;0.93;0.50;;;8.60;99.90;;;;;;4993530;28;20103;-78
2023/04/13 00:04:04;;;;;;;0.73;0.40;;;8.60;99.90;;;;;;4988465;28;20434;-80
2023/04/13 00:06:37;;;;;;;0.40;0.30;;;8.50;99.90;;;;;;4996189;28;20049;-78
2023/04/13 00:09:03;;;;;;;;;;;8.50;99.90;;;;;;4998193;28;20109;-78
2023/04/13 00:11:32;;;;;;;0.40;0.32;;;8.50;99.90;;;;;;4997103;28;19956;-79
2023/04/13 00:14:00;;;;;;;0.52;0.32;;;8.60;99.90;;;;;;5008279;28;20029;-80
2023/04/13 00:16:28;;;;;;;1.10;0.47;;;8.60;99.90;;;;;;4993282;28;20034;-78
2023/04/13 00:19:00;;;;;;;2.47;0.40;;;8.60;99.90;;;;;;5012462;28;20038;-77
2023/04/13 00:21:45;;;;;;;0.60;0.38;;;8.60;99.90;;;;;;4997730;28;20034;-79
2023/04/13 00:24:10;;;;;;;;;;;8.60;99.90;;;;;;4996515;28;20031;-79
2023/04/13 00:26:37;;;;;;;1.10;0.60;;;8.50;99.90;;;;;;4992944;28;20328;-77
2023/04/13 00:29:02;;;;;;;0.68;0.47;;;8.60;99.90;;;;;;4991587;28;20026;-78
2023/04/13 00:31:31;;;;;;;2.38;0.40;;;8.50;99.90;;;;;;5010677;28;20014;-79
2023/04/13 00:33:59;;;;;;;0.70;0.35;;;8.50;99.90;;;;;;4997913;28;20030;-77
2023/04/13 00:36:26;;;;;;;1.30;0.50;;;8.50;99.90;;;;;;4995394;28;20107;-79
2023/04/13 00:38:53;;;;;;;0.20;0.20;;;8.50;99.90;;;;;;4997195;28;20609;-74
2023/04/13 00:41:23;;;;;;;1.90;0.30;;;8.50;99.90;;;;;;4995176;28;20026;-76
2023/04/13 00:43:49;;;;;;;0.52;0.25;;;8.40;99.90;;;;;;4996528;28;20055;-77
2023/04/13 00:46:19;;;;;;;2.03;0.60;;;8.40;99.90;;;;;;4994710;28;20108;-77
2023/04/13 00:48:47;;;;;;;0.85;0.30;;;8.40;99.90;;;;;;4994346;28;20088;-77
2023/04/13 00:51:16;;;;;;;0.95;0.30;;;8.50;99.90;;;;;;4991961;28;20026;-77
2023/04/13 00:53:43;;;;;;;0.90;0.30;;;8.50;99.90;;;;;;4996980;28;20053;-77
2023/04/13 00:56:09;;;;;;;2.22;0.30;;;8.50;99.90;;;;;;4994958;28;20414;-78
2023/04/13 00:58:41;;;;;;;2.20;0.30;;;8.50;99.90;;;;;;4996382;28;20100;-78
2023/04/13 01:01:18;;;;;;;0.65;0.40;;;8.50;99.90;;;;;;4998034;28;20360;-75
2023/04/13 01:03:55;;;;;;;0.88;0.25;;;8.50;99.90;;;;;;4998118;28;20106;-77
2023/04/13 01:06:30;;;;;;;1.98;0.40;;;8.50;99.90;;;;;;4995032;28;20667;-80
2023/04/13 01:09:10;;;;;;;1.65;0.43;;;8.50;99.90;;;;;;4999572;28;20364;-76
2023/04/13 01:12:00;;;;;;;2.63;0.38;;;8.30;99.90;;;;;;4997310;28;20550;-76
2023/04/13 01:14:39;;;;;;;2.15;0.20;;;8.40;99.90;;;;;;5009139;28;20065;-78
2023/04/13 01:17:15;;;;;;;0.95;0.30;;;8.40;99.90;;;;;;4996715;28;20089;-77
2023/04/13 01:19:56;;;;;;;0.73;0.30;;;8.40;99.90;;;;;;4999769;28;20103;-78
2023/04/13 01:22:28;;;;;;;1.45;0.50;;;8.40;99.90;;;;;;4991646;28;20113;-78
2023/04/13 01:24:57;;;;;;;2.63;0.40;;;8.40;99.90;;;;;;4997374;28;20018;-76
2023/04/13 01:27:45;;;;;;;1.20;0.28;;;8.40;99.90;;;;;;4994624;28;20101;-76
2023/04/13 01:30:17;;;;;;;0.55;0.30;;;8.40;99.90;;;;;;5000606;28;20497;-76
2023/04/13 01:32:50;;;;;;;0.35;0.25;;;8.40;99.90;;;;;;4995252;28;20018;-78
2023/04/13 01:35:17;;;;;;;4.18;0.40;;;8.40;99.90;;;;;;4998107;28;20026;-76
2023/04/13 01:37:44;;;;;;;1.10;0.50;;;8.30;99.90;;;;;;4996653;28;20034;-78
2023/04/13 01:40:13;;;;;;;2.15;0.40;;;8.30;99.90;;;;;;4995658;28;20116;-76
2023/04/13 01:42:45;;;;;;;1.27;0.40;;;8.30;99.90;;;;;;4997994;28;20057;-77
2023/04/13 01:45:18;;;;;;;1.63;0.40;;;8.20;99.90;;;;;;5011615;28;20030;-77
2023/04/13 01:48:13;;;;;;;0.65;0.35;;;8.20;99.90;;;;;;5014649;28;20517;-78
2023/04/13 01:50:42;;;;;;;1.02;0.40;;;8.20;99.90;;;;;;4994990;28;20046;-78
2023/04/13 01:53:34;;;;;;;0.88;0.38;;;8.20;99.90;;;;;;4997018;28;20030;-77
2023/04/13 01:56:03;;;;;;;0.70;0.30;;;8.20;99.90;;;;;;4987117;28;20281;-78
2023/04/13 01:58:32;;;;;;;2.10;0.38;;;8.30;99.90;;;;;;4993643;28;20022;-77
2023/04/13 02:01:06;;;;;;;1.63;0.30;;;8.20;99.90;;;;;;4995210;28;20030;-76
2023/04/13 02:03:33;;;;;;;1.42;0.30;;;8.20;99.90;;;;;;5000102;28;20029;-74
2023/04/13 02:06:02;;;;;;;1.08;0.50;;;8.10;99.90;;;;;;4997142;28;20058;-79
2023/04/13 02:08:30;;;;;;;0.82;0.22;;;8.10;99.90;;;;;;4997298;28;20026;-79
2023/04/13 02:11:09;;;;;;;0.88;0.30;;;8.00;99.90;;;;;;4994865;28;20168;-78
2023/04/13 02:13:34;;;;;;;1.05;0.30;;;8.00;99.90;;;;;;4994643;28;20084;-76
2023/04/13 02:16:00;;;;;;;3.35;0.50;;;8.00;99.90;;;;;;5002115;28;20022;-78
2023/04/13 02:18:26;;;;;;;1.90;0.38;;;7.90;99.90;;;;;;4999160;28;20061;-78
2023/04/13 02:21:06;;;;;;;0.75;0.30;;;7.90;99.90;;;;;;5002177;28;20026;-79
2023/04/13 02:23:36;;;;;;;1.00;0.30;;;7.90;99.90;;;;;;4996093;28;20026;-79
2023/04/13 02:26:03;;;;;;;5.40;0.70;;;7.90;99.90;;;;;;5006957;28;20026;-76
2023/04/13 02:28:29;;;;;;;0.70;0.30;;;7.80;99.90;;;;;;5002433;28;20026;-76
2023/04/13 02:31:15;;;;;;;1.20;0.50;;;7.80;99.90;;;;;;4998782;28;20029;-74
2023/04/13 02:33:45;;;;;;;3.60;3.00;;;7.80;99.90;;;;;;4994924;28;20215;-77
2023/04/13 02:36:16;;;;;;;1.08;0.80;;;7.80;99.90;;;;;;4999040;28;20064;-77
2023/04/13 02:38:44;;;;;;;1.02;0.50;;;7.80;99.90;;;;;;5001028;28;20080;-76
2023/04/13 02:41:11;;;;;;;0.70;0.50;;;7.70;99.90;;;;;;4997430;28;20073;-76
2023/04/13 02:43:36;;;;;;;0.60;0.30;;;7.70;99.90;;;;;;5003777;28;20386;-76
2023/04/13 02:46:05;;;;;;;0.90;0.50;;;7.70;99.90;;;;;;4999845;28;20088;-75
2023/04/13 02:48:37;;;;;;;1.20;0.30;;;7.70;99.90;;;;;;4995601;28;20074;-76
2023/04/13 02:51:11;;;;;;;1.83;0.40;;;7.60;99.90;;;;;;4991843;28;20587;-79
2023/04/13 02:53:37;;;;;;;2.05;0.30;;;7.60;99.90;;;;;;4991787;28;20064;-74
2023/04/13 02:56:06;;;;;;;1.27;0.40;;;7.50;99.90;;;;;;4991421;28;20138;-77
2023/04/13 02:58:32;;;;;;;0.88;0.45;;;7.50;99.90;;;;;;4996722;28;20101;-74
2023/04/13 03:01:00;;;;;;;1.88;0.20;;;7.50;99.90;;;;;;4992477;28;20112;-79
2023/04/13 03:03:32;;;;;;;0.50;0.30;;;7.50;99.90;;;;;;4997570;28;20030;-76
2023/04/13 03:06:07;;;;;;;0.50;0.38;;;7.50;99.90;;;;;;4992076;28;20419;-76
2023/04/13 03:08:33;;;;;;;1.52;0.30;;;7.50;99.90;;;;;;4994895;28;20022;-77
2023/04/13 03:10:59;;;;;;;1.08;0.40;;;7.50;99.90;;;;;;4996087;28;20045;-78
2023/04/13 03:13:34;;;;;;;0.80;0.40;;;7.50;99.90;;;;;;5016095;28;20026;-78
2023/04/13 03:16:06;;;;;;;0.93;0.40;;;7.40;99.90;;;;;;4996030;28;20033;-76
2023/04/13 03:18:36;;;;;;;1.60;0.63;;;7.50;99.90;;;;;;4993465;28;20045;-78
2023/04/13 03:21:04;;;;;;;2.45;0.65;;;7.50;99.90;;;;;;5009395;28;20085;-78
2023/04/13 03:23:30;;;;;;;1.00;0.38;;;7.50;99.90;;;;;;4991858;28;20467;-78
2023/04/13 03:25:56;;;;;;;0.73;0.40;;;7.50;99.90;;;;;;4996490;28;20122;-78
2023/04/13 03:28:24;;;;;;;0.77;0.30;;;7.50;99.90;;;;;;5005526;28;20435;-77
2023/04/13 03:30:53;;;;;;;0.65;0.35;;;7.50;99.90;;;;;;5012225;28;20076;-78
2023/04/13 03:33:18;;;;;;;0.73;0.40;;;7.40;99.90;;;;;;4993129;28;20087;-79
2023/04/13 03:35:44;;;;;;;1.23;0.38;;;7.40;99.90;;;;;;4993716;28;20108;-78
2023/04/13 03:38:10;;;;;;;0.75;0.38;;;7.40;99.90;;;;;;4996587;28;20023;-80
2023/04/13 03:40:45;;;;;;;1.20;0.30;;;7.40;99.90;;;;;;4995876;28;20128;-80
2023/04/13 03:43:13;;;;;;;1.77;0.38;;;7.50;99.90;;;;;;4996520;28;20026;-79
2023/04/13 03:45:39;;;;;;;0.95;0.40;;;7.40;99.90;;;;;;4996671;28;20033;-79
2023/04/13 03:48:05;;;;;;;0.95;0.40;;;7.50;99.90;;;;;;4996052;28;20426;-78
2023/04/13 03:50:43;;;;;;;2.47;0.22;;;7.50;99.90;;;;;;4996718;28;20451;-77
2023/04/13 03:53:09;;;;;;;2.08;0.30;;;7.50;99.90;;;;;;4997860;28;20212;-79
2023/04/13 03:55:37;;;;;;;1.10;0.52;;;7.50;99.90;;;;;;4998711;28;20062;-78
2023/04/13 03:58:03;;;;;;;0.75;0.45;;;7.50;99.90;;;;;;4998903;28;20027;-79
2023/04/13 04:00:29;;;;;;;1.55;0.50;;;7.50;99.90;;;;;;4993782;28;20057;-77
2023/04/13 04:03:16;;;;;;;0.93;0.50;;;7.50;99.90;;;;;;4998284;28;20022;-76
2023/04/13 04:05:45;;;;;;;2.40;0.43;;;7.60;99.90;;;;;;4994451;28;20049;-79
2023/04/13 04:08:17;;;;;;;2.80;0.73;;;7.60;99.90;;;;;;4994355;28;20029;-78
2023/04/13 04:10:42;;;;;;;1.98;0.70;;;7.60;99.90;;;;;;4998440;28;20639;-80
2023/04/13 04:13:11;;;;;;;3.90;0.60;;;7.60;99.90;;;;;;4997464;28;20163;-80
2023/04/13 04:15:42;;;;;;;3.47;0.52;;;7.60;99.90;;;;;;4999367;28;20018;-77
2023/04/13 04:18:09;;;;;;;3.17;0.60;;;7.60;99.90;;;;;;4993313;28;20041;-79
2023/04/13 04:20:37;;;;;;;2.50;0.43;;;7.70;99.90;;;;;;5001352;28;20046;-79
2023/04/13 04:23:04;;;;;;;2.67;0.73;;;7.60;99.90;;;;;;4995647;28;20044;-77
2023/04/13 04:25:44;;;;;;;3.88;0.90;;;7.60;99.90;;;;;;4993812;28;20053;-77
2023/04/13 04:28:16;;;;;;;2.63;0.70;;;7.60;99.90;;;;;;4997876;28;20026;-72
2023/04/13 04:30:44;;;;;;;2.75;0.60;;;7.60;99.90;;;;;;4989524;28;20414;-76
2023/04/13 04:33:16;;;;;;;5.20;1.20;;;7.60;99.90;;;;;;4996159;28;20038;-77
2023/04/13 04:36:07;;;;;;;2.92;0.60;;;7.60;99.90;;;;;;4999270;28;20022;-76
2023/04/13 04:38:36;;;;;;;2.55;0.75;;;7.60;99.90;;;;;;4993000;28;20018;-78
2023/04/13 04:41:02;;;;;;;6.18;1.05;;;7.60;99.90;;;;;;4994532;28;20037;-72
2023/04/13 04:43:34;;;;;;;4.13;0.60;;;7.60;99.90;;;;;;4989112;28;20023;-74
2023/04/13 04:46:03;;;;;;;5.40;0.85;;;7.60;99.90;;;;;;4991192;28;20480;-77
2023/04/13 04:48:36;;;;;;;3.42;0.80;;;7.50;99.90;;;;;;4991876;28;20034;-75
2023/04/13 04:51:02;;;;;;;3.17;0.55;;;7.60;99.90;;;;;;4988537;28;20045;-76
2023/04/13 04:53:27;;;;;;;4.40;0.88;;;7.50;99.90;;;;;;4995524;28;20109;-72
2023/04/13 04:55:56;;;;;;;4.90;1.25;;;7.60;99.90;;;;;;4990904;28;20030;-75
2023/04/13 04:58:21;;;;;;;3.00;0.93;;;7.50;99.90;;;;;;5005612;28;20126;-75
2023/04/13 05:00:48;;;;;;;2.63;0.80;;;7.50;99.90;;;;;;4991009;28;20110;-74
2023/04/13 05:03:16;;;;;;;2.85;0.80;;;7.60;99.90;;;;;;4988917;28;20030;-76
2023/04/13 05:05:45;;;;;;;3.78;0.70;;;7.60;99.90;;;;;;4989711;28;20097;-76
2023/04/13 05:08:17;;;;;;;4.30;1.05;;;7.60;99.90;;;;;;4986110;28;20041;-76
2023/04/13 05:10:44;;;;;;;4.30;0.80;;;7.60;99.90;;;;;;4992362;28;20023;-75
2023/04/13 05:13:11;;;;;;;3.13;1.08;;;7.60;99.90;;;;;;4992547;28;20380;-74
2023/04/13 05:15:40;;;;;;;6.85;1.23;;;7.70;99.90;;;;;;4991685;28;20110;-75
2023/04/13 05:18:14;;;;;;;3.83;0.80;;;7.70;99.90;;;;;;4997023;28;20117;-75
2023/04/13 05:20:40;;;;;;;3.65;1.20;;;7.70;99.90;;;;;;5004014;28;20038;-74
2023/04/13 05:23:06;;;;;;;5.10;1.58;;;7.70;99.90;;;;;;4991839;28;20018;-75
2023/04/13 05:25:31;;;;;;;4.55;0.95;;;7.70;99.90;;;;;;4992333;28;20026;-75
2023/04/13 05:28:00;;;;;;;5.55;0.90;;;7.70;99.90;;;;;;4992580;28;20065;-75
2023/04/13 05:30:35;;;;;;;6.95;1.10;;;7.70;99.90;;;;;;4998871;28;20065;-75
2023/04/13 05:33:08;;;;;;;2.55;0.52;;;7.80;99.90;;;;;;4993298;28;20022;-74
2023/04/13 05:35:33;;;;;;;3.05;0.60;;;7.80;99.90;;;;;;4993647;28;20517;-75
2023/04/13 05:37:59;;;;;;;6.93;1.00;;;7.80;99.90;;;;;;4988718;28;20053;-71
2023/04/13 05:40:25;;;;;;;3.72;1.05;;;7.80;99.90;;;;;;4990826;28;20031;-75
2023/04/13 05:42:56;;;;;;;4.47;1.13;;;7.80;99.90;;;;;;4989939;28;20043;-74
2023/04/13 05:45:28;;;;;;;3.72;1.00;;;7.80;99.90;;;;;;4991127;28;20365;-72
2023/04/13 05:47:57;;;;;;;2.55;1.02;;;7.80;99.90;;;;;;4992767;28;20054;-74
2023/04/13 05:50:28;;;;;;;3.03;1.00;;;7.80;99.90;;;;;;4991483;28;20081;-75
2023/04/13 05:52:56;;;;;;;8.35;1.00;;;7.80;99.90;;;;;;4996384;28;20038;-75
2023/04/13 05:55:22;;;;;;;2.58;0.88;;;7.80;99.90;;;;;;4992359;28;20482;-74
2023/04/13 05:57:54;;;;;;;2.47;0.65;;;7.80;99.90;;;;;;4994684;28;20076;-75
2023/04/13 06:00:20;;;;;;;5.15;1.23;;;7.80;99.90;;;;;;4994352;28;20030;-75
2023/04/13 06:02:48;;;;;;;4.95;1.20;;;7.90;99.90;;;;;;4990643;28;20088;-75
2023/04/13 06:05:17;;;;;;;2.72;0.95;;;7.90;99.90;;;;;;4992278;28;20022;-74
2023/04/13 06:07:45;;;;;;;4.35;0.80;;;7.90;99.90;;;;;;4994049;28;20038;-75
2023/04/13 06:10:15;;;;;;;1.45;0.77;;;7.90;99.90;;;;;;4992399;28;20195;-76
2023/04/13 06:12:47;;;;;;;5.43;0.88;;;8.00;99.90;;;;;;4991349;28;20507;-75
2023/04/13 06:15:13;;;;;;;4.72;1.00;;;8.00;99.90;;;;;;4995978;28;20026;-75
2023/04/13 06:17:45;;;;;;;5.50;1.42;;;8.00;99.90;;;;;;4993679;28;20030;-76
2023/04/13 06:20:14;;;;;;;5.18;1.00;;;8.00;99.90;;;;;;4996390;28;20097;-77
2023/04/13 06:22:40;;;;;;;6.47;1.00;;;8.00;99.90;;;;;;4989840;28;20027;-74
2023/04/13 06:25:07;;;;;;;4.95;0.98;;;8.00;99.90;;;;;;4995350;28;20096;-76
2023/04/13 06:27:33;;;;;;;5.35;1.08;;;8.00;99.90;;;;;;4992893;28;20469;-74
2023/04/13 06:30:05;;;;;;;5.30;1.40;;;8.00;99.90;;;;;;4993402;28;20101;-76
2023/04/13 06:32:31;;;;;;;2.47;0.88;;;8.00;99.90;;;;;;4994538;28;20080;-75
2023/04/13 06:34:57;;;;;;;4.70;0.85;;;8.00;99.90;;;;;;4989982;28;20030;-75
2023/04/13 06:37:26;;;;;;;4.78;1.00;;;8.00;99.90;;;;;;4992098;28;20018;-75
2023/04/13 06:39:52;;;;;;;1.95;0.73;;;8.00;99.90;;;;;;4990547;28;20022;-75
2023/04/13 06:42:26;;;;;;;3.00;0.60;;;7.90;99.90;;;;;;4993643;28;20029;-75
2023/04/13 06:44:57;;;;;;;3.45;0.80;;;8.00;99.90;;;;;;5012520;28;20391;-77
2023/04/13 06:47:23;;;;;;;2.35;0.60;;;8.00;99.90;;;;;;4982725;28;20007;-76
2023/04/13 06:49:49;;;;;;;3.72;0.85;;;7.90;99.90;;;;;;4992563;28;20037;-77
2023/04/13 06:52:15;;;;;;;2.75;0.60;;;7.90;99.90;;;;;;4990573;28;20061;-73
2023/04/13 06:54:40;;;;;;;1.92;0.57;;;8.00;99.90;;;;;;5007414;28;20046;-75
2023/04/13 06:57:09;;;;;;;4.10;0.73;;;8.00;99.90;;;;;;4994214;28;20505;-74
2023/04/13 06:59:37;;;;;;;4.38;0.80;;;8.00;99.90;;;;;;4993104;28;20117;-76
2023/04/13 07:02:03;;;;;;;6.03;1.27;;;8.00;99.90;;;;;;4986690;28;20034;-73
2023/04/13 07:04:29;;;;;;;3.60;0.90;;;8.10;99.90;;;;;;5002148;28;20080;-75
2023/04/13 07:06:57;;;;;;;4.78;0.80;;;8.10;99.90;;;;;;4997243;28;20022;-75
2023/04/13 07:09:23;;;;;;;8.95;0.70;;;8.20;99.90;;;;;;4987053;28;20030;-74
2023/04/13 07:11:49;;;;;;;3.13;0.90;;;8.20;99.90;;;;;;4997512;28;20449;-73
2023/04/13 07:14:14;;;;;;;5.82;1.10;;;8.20;99.90;;;;;;4991907;28;20047;-76
2023/04/13 07:16:40;;;;;;;5.57;0.90;;;8.30;99.90;;;;;;4995564;28;20031;-74
2023/04/13 07:19:09;;;;;;;6.97;0.85;;;8.30;99.90;;;;;;4990386;28;20034;-74
2023/04/13 07:21:34;;;;;;;8.90;1.02;;;8.30;99.90;;;;;;4990500;28;20022;-74
2023/04/13 07:24:06;;;;;;;2.53;0.82;;;8.30;99.90;;;;;;4983528;28;20391;-73
2023/04/13 07:26:35;;;;;;;4.28;0.98;;;8.30;99.90;;;;;;4988460;28;20042;-76
2023/04/13 07:29:00;;;;;;;6.63;1.05;;;8.30;99.90;;;;;;5013048;28;20036;-77
2023/04/13 07:31:26;;;;;;;2.08;0.60;;;8.30;99.90;;;;;;4994768;28;20568;-78
2023/04/13 07:33:53;;;;;;;7.90;1.05;;;8.40;99.90;;;;;;4998557;28;20129;-78
2023/04/13 07:36:18;;;;;;;6.50;1.00;;;8.30;99.90;;;;;;4993138;28;20495;-79
2023/04/13 07:39:02;;;;;;;5.13;1.20;;;8.40;99.90;;;;;;4994718;28;20027;-76
2023/04/13 07:41:31;;;;;;;5.18;1.00;;;8.40;99.90;;;;;;4983243;28;20039;-75
2023/04/13 07:44:18;;;;;;;2.22;1.00;;;8.50;99.90;;;;;;4985906;28;20038;-73
2023/04/13 07:46:55;;;;;;;6.00;1.00;;;8.50;99.90;;;;;;4987583;28;20069;-73
2023/04/13 07:49:26;;;;;;;5.32;0.88;;;8.50;99.90;;;;;;4986225;28;20041;-74
2023/04/13 07:51:53;;;;;;;2.75;1.00;;;8.50;99.90;;;;;;5004315;28;20030;-75
2023/04/13 07:54:30;;;;;;;5.80;0.90;;;8.50;99.90;;;;;;4988317;28;20050;-75
2023/04/13 07:57:11;;;;;;;4.75;0.90;;;8.60;99.90;;;;;;4986808;28;20026;-75
2023/04/13 07:59:46;;;;;;;8.30;1.17;;;8.60;99.90;;;;;;5004324;28;20391;-73
2023/04/13 08:02:12;;;;;;;3.55;1.00;;;8.60;99.90;;;;;;4998490;28;20035;-75
2023/04/13 08:04:38;;;;;;;5.60;1.30;;;8.70;99.90;;;;;;4994097;28;20081;-75
2023/04/13 08:07:04;;;;;;;4.15;1.05;;;8.70;99.90;;;;;;4988955;28;20054;-74
2023/04/13 08:09:41;;;;;;;5.47;1.20;;;8.70;99.90;;;;;;4987744;28;20455;-75
2023/04/13 08:12:09;;;;;;;4.60;0.90;;;8.90;99.90;;;;;;4991518;28;20045;-75
2023/04/13 08:14:38;;;;;;;3.28;0.80;;;9.00;99.90;;;;;;4989174;28;20121;-75
2023/04/13 08:17:04;;;;;;;7.75;1.50;;;9.10;99.90;;;;;;4984165;28;20636;-73
2023/04/13 08:19:36;;;;;;;6.80;1.10;;;9.10;99.90;;;;;;4986414;28;20384;-75
2023/04/13 08:22:03;;;;;;;5.32;1.17;;;9.20;99.90;;;;;;4983281;28;21131;-75
2023/04/13 08:24:34;;;;;;;7.97;1.00;;;9.30;99.90;;;;;;4989334;28;20026;-75
2023/04/13 08:27:06;;;;;;;5.72;1.10;;;9.30;99.90;;;;;;4994194;28;20034;-74
2023/04/13 08:29:31;;;;;;;6.85;1.65;;;9.40;99.90;;;;;;4987808;28;20452;-75
2023/04/13 08:32:03;;;;;;;5.05;1.20;;;9.50;99.90;;;;;;5002724;28;20041;-75
2023/04/13 08:34:38;;;;;;;7.20;1.35;;;9.60;99.90;;;;;;5005665;28;20355;-75
2023/04/13 08:37:03;;;;;;;5.28;1.25;;;9.70;99.90;;;;;;4987114;28;20105;-75
2023/04/13 08:39:32;;;;;;;3.90;1.25;;;9.80;99.80;;;;;;4990767;28;20264;-72
2023/04/13 08:42:01;;;;;;;6.35;1.10;;;9.90;99.90;;;;;;4991628;28;20034;-73
2023/04/13 08:44:39;;;;;;;4.88;1.00;;;9.90;99.60;;;;;;5003559;28;20018;-72
2023/04/13 08:47:04;;;;;;;2.10;1.00;;;9.90;99.30;;;;;;4986957;28;20022;-72
2023/04/13 08:49:35;;;;;;;3.13;1.13;;;10.00;99.20;;;;;;4984283;28;20026;-74
2023/04/13 08:52:05;;;;;;;4.38;1.27;;;10.00;99.10;;;;;;4986789;28;20206;-75
2023/04/13 08:54:31;;;;;;;5.47;1.17;;;10.00;99.20;;;;;;4990681;28;20068;-73
2023/04/13 08:56:58;;;;;;;7.50;1.38;;;10.00;98.80;;;;;;4987257;28;20065;-71
2023/04/13 08:59:27;;;;;;;3.72;0.95;;;10.00;99.30;;;;;;4987158;28;20030;-73
2023/04/13 09:01:57;;;;;;;9.32;1.17;;;10.10;99.40;;;;;;4986069;28;20103;-73
2023/04/13 09:04:35;;;;;;;5.05;1.27;;;10.10;99.10;;;;;;4991319;28;20027;-73
2023/04/13 09:07:03;;;;;;;8.95;1.48;;;10.10;98.90;;;;;;5004665;28;20041;-74
2023/04/13 09:09:31;;;;;;;2.40;0.95;;;10.20;99.10;;;;;;4988569;28;20026;-74
2023/04/13 09:11:59;;;;;;;8.00;1.10;;;10.20;98.60;;;;;;4990063;28;20041;-73
2023/04/13 09:14:30;;;;;;;3.00;0.80;;;10.30;99.10;;;;;;4984020;28;20033;-74
2023/04/13 09:17:02;;;;;;;6.78;1.73;;;10.30;99.70;;;;;;4990838;28;20157;-74
2023/04/13 09:19:32;;;;;;;8.23;1.20;;;10.40;99.60;;;;;;4989165;28;20200;-74
2023/04/13 09:21:58;;;;;;;8.90;1.80;;;10.40;99.40;;;;;;4992752;28;20026;-75
2023/04/13 09:24:38;;;;;;;8.32;1.35;;;10.40;99.20;;;;;;5005932;28;20022;-75
2023/04/13 09:27:04;;;;;;;5.40;1.08;;;10.50;98.60;;;;;;4992111;28;20352;-75
2023/04/13 09:29:29;;;;;;;3.65;1.08;;;10.40;98.40;;;;;;4992006;28;20040;-74
2023/04/13 09:31:55;;;;;;;5.85;1.23;;;10.50;99.00;;;;;;4991421;28;20038;-74
2023/04/13 09:34:33;;;;;;;5.72;1.55;;;10.40;99.90;;;;;;4991075;28;20045;-74
2023/04/13 09:37:10;;;;;;;4.88;1.20;;;10.40;99.40;;;;;;4991369;28;20593;-74
2023/04/13 09:39:38;;;;;;;6.50;0.95;;;10.30;98.60;;;;;;4984510;28;20037;-74
2023/04/13 09:42:10;;;;;;;5.70;1.10;;;10.40;98.60;;;;;;4994992;28;20022;-73
2023/04/13 09:45:00;;;;;;;4.65;1.20;;;10.50;98.70;;;;;;4994085;28;20030;-74
2023/04/13 09:47:39;;;;;;;4.35;1.17;;;10.60;98.40;;;;;;4991780;28;20022;-73
2023/04/13 09:50:35;;;;;;;4.60;1.10;;;10.70;98.50;;;;;;4992354;28;20479;-74
2023/04/13 09:53:05;;;;;;;4.15;1.20;;;10.80;96.80;;;;;;4991125;28;20101;-74
2023/04/13 09:55:57;;;;;;;5.75;1.23;;;10.90;97.10;;;;;;4995175;28;20034;-74
2023/04/13 09:58:22;;;;;;;5.50;1.25;;;11.10;96.60;;;;;;4992972;28;20076;-74
2023/04/13 10:00:49;;;;;;;7.13;1.63;;;11.20;95.60;;;;;;4990861;28;20401;-74
2023/04/13 10:03:17;;;;;;;8.93;1.30;;;11.30;95.50;;;;;;4988879;28;20033;-74
2023/04/13 10:05:43;;;;;;;6.65;1.38;;;11.40;95.00;;;;;;4987683;28;20123;-73
2023/04/13 10:08:09;;;;;;;5.25;1.30;;;11.50;94.80;;;;;;4992974;28;20386;-73
2023/04/13 10:10:36;;;;;;;2.80;0.95;;;11.60;94.30;;;;;;4991854;28;20038;-73
2023/04/13 10:13:19;;;;;;;5.72;1.50;;;11.70;94.10;;;;;;4993707;28;20483;-74
2023/04/13 10:16:22;;;;;;;3.58;1.02;;;11.70;93.20;;;;;;4990976;28;20120;-72
2023/04/13 10:19:02;;;;;;;3.72;1.10;;;11.70;93.20;;;;;;4984570;28;20073;-74
2023/04/13 10:21:41;;;;;;;4.25;1.10;;;11.70;93.40;;;;;;4998561;28;20392;-74
2023/04/13 10:24:11;;;;;;;3.78;1.15;;;11.80;93.50;;;;;;4998729;28;20026;-73
2023/04/13 10:26:37;;;;;;;4.32;0.90;;;11.80;93.30;;;;;;4993931;28;20030;-73
2023/04/13 10:29:04;;;;;;;8.43;1.25;;;11.60;93.30;;;;;;4998813;22;20089;-73
2023/04/13 10:31:50;;;;;;;5.82;1.13;;;11.40;96.50;;;;;;4971390;28;20089;-75
2023/04/13 10:34:33;;;;;;;4.80;1.10;;;11.10;99.60;;;;;;4978809;28;20137;-74
2023/04/13 10:37:08;;;;;;;6.97;1.48;;;10.60;99.90;;;;;;4977538;28;20026;-74
2023/04/13 10:39:34;;;;;;;3.83;1.10;;;10.30;99.90;;;;;;4976787;28;20022;-74
2023/04/13 10:42:06;;;;;;;9.05;1.25;;;10.20;99.90;;;;;;4973127;28;20048;-75
2023/04/13 10:44:44;;;;;;;5.25;0.93;;;10.00;99.90;;;;;;4989899;28;20031;-74
2023/04/13 10:47:11;;;;;;;4.60;1.05;;;10.00;99.90;;;;;;4974957;28;20033;-74
2023/04/13 10:49:37;;;;;;;7.47;1.15;;;10.00;99.90;;;;;;4972601;28;20034;-74
2023/04/13 10:52:02;;;;;;;7.40;1.60;;;10.10;99.90;;;;;;4976197;28;20467;-74
2023/04/13 10:54:29;;;;;;;5.80;1.75;;;10.30;99.90;;;;;;4977733;28;20038;-73
2023/04/13 10:57:08;;;;;;;7.20;1.58;;;10.50;99.90;;;;;;4976361;28;20092;-71
2023/04/13 10:59:51;;;;;;;6.53;1.60;;;10.60;99.90;;;;;;4981557;28;20022;-74
2023/04/13 11:02:18;;;;;;;5.15;1.45;;;10.80;99.90;;;;;;4975425;28;20395;-73
2023/04/13 11:04:46;;;;;;;7.25;1.63;;;10.80;99.90;;;;;;4975181;28;20378;-75
2023/04/13 11:07:37;;;;;;;12.07;1.80;;;10.90;99.90;;;;;;4977240;28;20058;-75
2023/04/13 11:10:04;;;;;;;7.35;1.23;;;10.70;99.90;;;;;;4972688;28;20061;-73
2023/04/13 11:12:30;;;;;;;6.22;1.83;;;10.60;99.90;;;;;;4972941;28;20039;-75
2023/04/13 11:15:28;;;;;;;6.43;1.52;;;10.40;99.90;;;;;;4978834;28;20062;-75
2023/04/13 11:18:01;;;;;;;6.00;1.48;;;10.30;99.90;;;;;;4988419;28;20022;-74
2023/04/13 11:20:37;;;;;;;5.60;1.73;;;10.20;99.90;;;;;;4977108;28;20039;-75
2023/04/13 11:23:14;;;;;;;6.05;1.23;;;10.20;99.90;;;;;;4977716;28;20064;-74
2023/04/13 11:25:58;;;;;;;7.05;1.30;;;10.40;99.90;;;;;;4978291;28;20033;-74
2023/04/13 11:28:38;;;;;;;8.95;2.53;;;10.50;99.90;;;;;;4974410;28;20027;-74
2023/04/13 11:31:06;;;;;;;6.60;1.42;;;10.60;99.90;;;;;;4979504;28;20055;-76
2023/04/13 11:33:33;;;;;;;7.47;1.50;;;10.80;99.90;;;;;;4979067;28;20023;-75
2023/04/13 11:35:59;;;;;;;5.97;1.67;;;10.90;99.90;;;;;;4983878;28;20081;-76
2023/04/13 11:38:28;;;;;;;7.70;1.60;;;11.00;99.90;;;;;;4983622;28;20038;-76
2023/04/13 11:41:13;;;;;;;7.88;2.25;;;11.10;99.90;;;;;;4978641;28;20030;-75
2023/04/13 11:43:44;;;;;;;6.68;1.30;;;11.30;99.90;;;;;;4978765;28;20034;-75
2023/04/13 11:46:12;;;;;;;6.32;2.10;;;11.40;99.90;;;;;;4977273;28;20171;-74
2023/04/13 11:48:38;;;;;;;4.72;1.52;;;11.40;99.90;;;;;;4978474;28;20111;-76
2023/04/13 11:51:07;;;;;;;6.13;1.67;;;11.50;99.90;;;;;;4976788;28;20467;-77
2023/04/13 11:53:44;;;;;;;6.65;1.20;;;11.50;99.90;;;;;;4977559;28;20026;-75
2023/04/13 11:56:17;;;;;;;4.35;1.02;;;11.50;98.60;;;;;;4985470;28;20399;-75
2023/04/13 11:58:43;;;;;;;3.70;1.00;;;11.40;98.50;;;;;;4982494;28;20023;-76
2023/04/13 12:01:12;;;;;;;5.32;1.55;;;11.40;98.20;;;;;;4977602;28;20022;-77
2023/04/13 12:03:42;;;;;;;5.45;1.40;;;11.30;98.50;;;;;;4976855;28;20027;-75
2023/04/13 12:06:13;;;;;;;9.15;1.20;;;11.30;98.90;;;;;;4976627;28;20019;-75
2023/04/13 12:08:42;;;;;;;3.13;1.48;;;11.50;98.30;;;;;;4990730;28;20061;-73
2023/04/13 12:11:11;;;;;;;8.90;1.63;;;11.60;98.40;;;;;;4983662;28;20037;-77
2023/04/13 12:13:40;;;;;;;2.85;1.10;;;11.60;97.40;;;;;;4997273;28;20495;-77
2023/04/13 12:16:06;;;;;;;4.30;0.98;;;11.80;97.60;;;;;;4992698;28;20014;-75
2023/04/13 12:18:46;;;;;;;7.38;1.38;;;11.90;97.00;;;;;;4976968;28;20029;-76
2023/04/13 12:21:15;;;;;;;2.58;0.82;;;12.10;96.30;;;;;;4976572;28;20030;-75
2023/04/13 12:23:51;;;;;;;3.85;1.00;;;12.20;95.50;;;;;;4976742;28;20391;-76
2023/04/13 12:26:23;;;;;;;5.70;1.17;;;12.30;95.40;;;;;;4976488;28;20046;-76
2023/04/13 12:28:56;;;;;;;4.10;1.40;;;12.40;94.80;;;;;;4976219;28;20030;-77
2023/04/13 12:31:35;;;;;;;8.80;2.28;;;12.40;94.00;;;;;;4978440;28;20041;-78
2023/04/13 12:34:07;;;;;;;7.65;1.85;;;12.50;94.10;;;;;;4979528;28;20077;-78
2023/04/13 12:36:36;;;;;;;5.15;1.33;;;12.60;94.00;;;;;;4991897;28;20034;-77
2023/04/13 12:39:05;;;;;;;3.60;1.10;;;12.70;93.50;;;;;;4978942;28;20026;-77
2023/04/13 12:41:34;;;;;;;4.10;1.00;;;12.70;93.30;;;;;;4982357;28;20026;-77
2023/04/13 12:44:00;;;;;;;4.25;1.40;;;12.70;92.80;;;;;;4998826;28;20085;-78
2023/04/13 12:46:35;;;;;;;2.70;1.23;;;12.70;92.70;;;;;;4998047;28;20050;-77
2023/04/13 12:49:04;;;;;;;5.05;1.20;;;12.30;95.30;;;;;;4985646;28;20031;-76
2023/04/13 12:51:41;;;;;;;3.65;0.65;;;11.80;98.20;;;;;;4975578;28;20038;-76
2023/04/13 12:54:12;;;;;;;3.17;0.73;;;11.30;99.90;;;;;;4945149;28;20126;-76
2023/04/13 12:56:47;;;;;;;3.90;1.15;;;10.80;99.90;;;;;;4962855;28;20019;-78
2023/04/13 12:59:15;;;;;;;4.25;1.10;;;10.30;99.90;;;;;;4962894;28;20098;-77
2023/04/13 13:01:41;;;;;;;6.75;1.52;;;10.10;99.90;;;;;;4952103;28;20031;-74
2023/04/13 13:04:16;;;;;;;4.72;1.50;;;9.70;99.90;;;;;;4957601;28;20511;-75
2023/04/13 13:06:42;;;;;;;5.40;1.52;;;9.50;99.90;;;;;;4942633;29;20031;-76
2023/04/13 13:09:11;;;;;;;6.28;1.27;;;9.40;99.90;;;;;;4953384;28;20042;-76
2023/04/13 13:11:40;;;;;;;3.45;1.15;;;9.30;99.90;;;;;;4956161;28;20019;-76
2023/04/13 13:14:06;;;;;;;5.82;1.23;;;9.30;99.90;;;;;;4976348;28;20384;-76